Ride Results

State Champs @Moyston (06-07-2018)
Ride distance: 80.0 km

Outcomes - State Champs @Moyston (06-07-2018)
Division No. of Entries Retired / DNE Completed Withdrawn Ineligible V/O Percentage Completed
HW 3 - 2 - - 1 66.67%
MW 18 - 17 - - 1 94.44%
LW 11 - 8 - - 3 72.73%
JN 6 - 4 - - 2 66.67%
Totals 38 - 31 - - 7 81.58%
Results - State Champs @Moyston (06-07-2018)
No. Rider Horse Place Time Leg Speeds Total
Km/Hr
H/R bpm
Heavyweight
330 Rob West Cedarwood Lodge Red Diamond 1 (BC) 5:35:00 15.4, 13.8 14.60 31, 43, 46 (Avg:44)
306 Shannan Horvatek Musical Gully Sonatino 2 7:10:00 11.9, 10.8 11.37 32, 42, 48 (Avg:45)
135 Tamara Atkinson Mathoura McKinlay Lame L2 0:00:00 16.2, 13.3 - 41, 43, 56 (Avg:49)
Middleweight
351 Steve Blackhurst Musical Gully Largo 1 (BC) 4:40:00 18.8, 16.3 17.46 29, 40, 40 (Avg:40)
291 Kerryn Agnew Performance Park Menphis Rain 2 4:42:00 18.6, 16.2 17.34 31, 43, 48 (Avg:45)
338 Shea Reynolds Karraway's Gazelle 3 5:03:00 17.9, 14.7 16.14 36, 46, 48 (Avg:47)
257 Tanya Beacham Creswick Magdaleenah 4 5:40:00 15.3, 13.5 14.38 31, 44, 48 (Avg:46)
770 Michelle Goodley San Ella Lancalot 4 5:40:00 14.9, 13.9 14.38 33, 43, 50 (Avg:46)
286 Jason Rathbone Picnic Park Yilma 6 6:05:00 13.1, 13.6 13.40 35, 47, 50 (Avg:48)
131 Simon Thomas Morundah Just Sharii 7 6:13:00 14.0, 12.3 13.11 36, 44, 59 (Avg:51)
797 Emily Pinnuck Oso Dakota 8 6:24:00 12.8, 12.6 12.73 41, 45, 52 (Avg:48)
885 Donna Freeburn Dubonnet 9 6:29:00 13.6, 11.7 12.57 32, 38, 42 (Avg:40)
117 Tammy Nisbet Glenelen Park Sophina 10 7:04:00 12.6, 10.6 11.53 49, 46, 51 (Avg:48)
250 Kerry Alderton Forest Dale Look No Further 11 7:15:00 11.4, 11.0 11.24 44, 48, 59 (Avg:53)
310 Sheryl Symes TP Nafissah 11 7:15:00 11.4, 11.0 11.24 32, 45, 52 (Avg:48)
766 Diana The Hui Ling E.K.L. Amirah 13 7:39:00 11.7, 9.7 10.65 35, 42, 53 (Avg:47)
775 Liezl Briers Zemperial 14 7:40:00 12.0, 9.5 10.63 32, 35, 42 (Avg:38)
774 Tania Orlov Shuja Shoukira 14 7:40:00 12.1, 9.5 10.63 39, 45, 49 (Avg:47)
762 Loretta Barone Swiftwood Khalil 16 7:41:00 10.6, 10.5 10.61 32, 36, 41 (Avg:38)
796 Shannon Shearing Grandview Lodge Alabama Feraj 16 7:41:00 12.0, 9.5 10.61 35, 42, 49 (Avg:45)
769 Rebecca Lees WindradyneSierra Lame L1 0:00:00 11.7 - 34, 55 (Avg:55)
Lightweight
321 Renee Henry Cadenza Supernatural 1 (BC) 4:34:00 19.9, 16.2 17.85 30, 48, 44 (Avg:46)
278 Gina Thompson Musical Gully Comedia 2 4:40:00 18.8, 16.3 17.46 33, 41, 47 (Avg:44)
318 Rebecca Williamson Cougar Swan Chiron 3 4:54:00 19.4, 14.6 16.63 36, 47, 52 (Avg:49)
151 Kasey Thomas Rocky Point Black Xanthanite 4 6:13:00 14.0, 12.3 13.11 35, 42, 46 (Avg:44)
772 Emma Dimech Oso Lee 5 6:24:00 12.8, 12.6 12.73 34, 45, 50 (Avg:47)
90 Samantha Noble Halimas Danielle 6 6:49:00 12.6, 11.3 11.96 38, 41, 48 (Avg:44)
61 Lois Sharam Musical Gully Zanadu 7 7:10:00 11.9, 10.8 11.37 39, 41, 48 (Avg:44)
763 Narelle Pimlott Henley Farm Makir 8 7:40:00 10.6, 10.6 10.63 33, 43, 50 (Avg:46)
25050 Nicki Samson-Ward Skye Dancer Lame L2 0:00:00 10.5, 10.6 - 31, 42, 49 (Avg:45)
322 Brittany Elliott Summit Park Windsong Lame L1 0:00:00 19.9 - 30, 47, 50 (Avg:48)
761 Noni Seagrim Coolinda Park Sheeza Doll Heart Rate L1 0:00:00 18.6 - 32, 62 (Avg:62)
Junior
771 Jessica Dertell Cava FF 1 (BC) 6:05:00 13.1, 13.6 13.40 47, 45, 50 (Avg:47)
283 Zoe Rathbone Blake's Heaven Dawn Treader 1 6:05:00 13.1, 13.6 13.40 38, 42, 47 (Avg:44)
760 Poppy Kettlewell Oso Nicholas 3 6:24:00 12.8, 12.6 12.73 32, 37, 46 (Avg:41)
298 Vanessa Mills Suncrest Bonaenza 4 7:41:00 10.6, 10.5 10.61 35, 40, 42 (Avg:41)
765 Kody Dertell Sea Fever Ff Lame L1 0:00:00 13.1 - 38, 45 (Avg:45)
402 Annalise Drever-Borchardt Talunga Park Anastasia Lame L1 0:00:00 10.5 - 32, 39 (Avg:39)